Time;durP1;ratioP1;P1;durP2;ratioP2;P2;SDS_P1;SDS_P2;PMS_P1;PMS_P2;Temp;Humidity;BMP_temperature;BMP_pressure;BME280_temperature;BME280_humidity;BME280_pressure;Samples;Min_cycle;Max_cycle;Signal;HPM_P1;HPM_P2
2024/04/11 00:00:23;;;;;;;4.43;1.50;;;12.30;91.40;;;;;;5490183;26;20047;-71
2024/04/11 00:02:51;;;;;;;4.80;1.52;;;12.30;91.40;;;;;;5489939;26;20022;-71
2024/04/11 00:05:17;;;;;;;2.45;1.27;;;12.20;91.40;;;;;;5489685;26;20022;-71
2024/04/11 00:07:43;;;;;;;4.78;1.60;;;12.20;91.50;;;;;;5489995;26;20479;-71
2024/04/11 00:10:09;;;;;;;3.75;1.48;;;12.20;91.50;;;;;;5489910;26;20026;-71
2024/04/11 00:12:35;;;;;;;4.93;1.50;;;12.20;91.60;;;;;;5488961;26;20376;-71
2024/04/11 00:15:01;;;;;;;2.78;1.50;;;12.20;91.70;;;;;;5490035;26;20027;-71
2024/04/11 00:17:28;;;;;;;3.67;1.40;;;12.20;91.70;;;;;;5488925;26;20025;-70
2024/04/11 00:19:57;;;;;;;3.17;1.38;;;12.20;91.70;;;;;;5488395;26;20098;-71
2024/04/11 00:22:23;;;;;;;3.40;1.50;;;12.20;91.70;;;;;;5487659;26;20022;-71
2024/04/11 00:24:49;;;;;;;3.08;1.17;;;12.20;91.70;;;;;;5489852;26;20472;-71
2024/04/11 00:27:15;;;;;;;4.32;1.40;;;12.10;91.80;;;;;;5489626;26;20026;-71
2024/04/11 00:29:42;;;;;;;2.22;1.30;;;12.10;91.80;;;;;;5489098;26;20026;-71
2024/04/11 00:32:08;;;;;;;3.20;1.45;;;12.10;91.80;;;;;;5489656;26;20038;-71
2024/04/11 00:34:38;;;;;;;4.45;1.50;;;12.10;91.80;;;;;;5489497;26;20027;-71
2024/04/11 00:37:05;;;;;;;3.45;1.58;;;12.10;91.80;;;;;;5492736;26;20027;-71
2024/04/11 00:39:31;;;;;;;4.45;1.65;;;12.10;91.80;;;;;;5492494;26;20035;-71
2024/04/11 00:41:57;;;;;;;2.00;1.45;;;12.10;91.90;;;;;;5492665;26;20022;-71
2024/04/11 00:44:25;;;;;;;2.95;1.35;;;12.10;91.90;;;;;;5492393;26;20022;-71
2024/04/11 00:46:55;;;;;;;3.38;1.63;;;12.10;92.00;;;;;;5492156;26;20031;-71
2024/04/11 00:49:22;;;;;;;2.70;1.80;;;12.00;92.20;;;;;;5493269;26;20027;-71
2024/04/11 00:51:50;;;;;;;2.63;1.55;;;12.00;92.10;;;;;;5493174;26;20027;-71
2024/04/11 00:54:19;;;;;;;3.25;1.60;;;12.00;92.20;;;;;;5493018;26;20030;-71
2024/04/11 00:56:46;;;;;;;2.60;1.70;;;12.00;92.20;;;;;;5492982;26;20029;-71
2024/04/11 00:59:16;;;;;;;3.33;1.67;;;12.00;92.20;;;;;;5492955;26;20026;-71
2024/04/11 01:01:44;;;;;;;4.20;1.90;;;12.00;92.20;;;;;;5493132;26;20359;-71
2024/04/11 01:04:11;;;;;;;2.40;1.40;;;11.90;92.60;;;;;;5492222;26;20022;-71
2024/04/11 01:07:06;;;;;;;4.00;1.63;;;11.90;92.30;;;;;;5491970;26;20026;-71
2024/04/11 01:09:34;;;;;;;2.55;1.65;;;11.90;92.50;;;;;;5492997;26;20030;-71
2024/04/11 01:12:01;;;;;;;5.47;1.83;;;11.90;92.40;;;;;;5493011;26;20031;-71
2024/04/11 01:14:27;;;;;;;3.53;1.88;;;11.90;92.40;;;;;;5492723;26;20030;-71
2024/04/11 01:16:54;;;;;;;4.13;1.92;;;11.90;92.50;;;;;;5492841;26;20022;-71
2024/04/11 01:19:20;;;;;;;6.13;2.05;;;11.90;92.60;;;;;;5492706;26;20015;-71
2024/04/11 01:21:46;;;;;;;3.53;1.60;;;11.90;92.50;;;;;;5492546;26;20026;-71
2024/04/11 01:24:13;;;;;;;3.90;1.77;;;11.90;92.50;;;;;;5492825;26;20031;-71
2024/04/11 01:26:39;;;;;;;3.95;1.77;;;11.90;92.70;;;;;;5492687;26;20030;-71
2024/04/11 01:29:10;;;;;;;3.97;2.17;;;11.90;92.70;;;;;;5492688;26;20023;-71
2024/04/11 01:31:38;;;;;;;6.03;2.55;;;11.80;92.70;;;;;;5492521;26;20357;-71
2024/04/11 01:34:07;;;;;;;3.95;1.67;;;11.80;92.90;;;;;;5490028;26;20034;-71
2024/04/11 01:36:33;;;;;;;5.38;2.00;;;11.80;92.90;;;;;;5492305;26;20026;-71
2024/04/11 01:38:59;;;;;;;5.63;2.17;;;11.80;93.00;;;;;;5491796;26;20034;-71
2024/04/11 01:41:25;;;;;;;3.78;1.80;;;11.80;93.10;;;;;;5491384;26;20017;-71
2024/04/11 01:43:51;;;;;;;3.03;1.75;;;11.80;93.00;;;;;;5492199;26;20026;-71
2024/04/11 01:46:18;;;;;;;3.03;1.83;;;11.80;93.00;;;;;;5491802;26;20034;-71
2024/04/11 01:48:45;;;;;;;3.60;2.00;;;11.80;93.10;;;;;;5492118;26;20026;-71
2024/04/11 01:51:11;;;;;;;6.28;2.15;;;11.80;93.20;;;;;;5491844;26;20031;-71
2024/04/11 01:53:38;;;;;;;3.80;2.05;;;11.80;93.30;;;;;;5492182;26;20019;-71
2024/04/11 01:56:04;;;;;;;5.43;2.33;;;11.80;93.60;;;;;;5491896;26;20022;-71
2024/04/11 01:58:30;;;;;;;3.83;1.80;;;11.80;93.40;;;;;;5491700;26;20018;-71
2024/04/11 02:01:09;;;;;;;4.75;2.17;;;11.80;93.30;;;;;;5491990;26;20026;-71
2024/04/11 02:03:38;;;;;;;3.58;1.70;;;11.80;93.50;;;;;;5491685;26;20357;-71
2024/04/11 02:06:07;;;;;;;4.32;2.00;;;11.80;93.40;;;;;;5491609;26;20035;-71
2024/04/11 02:08:36;;;;;;;4.25;1.90;;;11.80;93.50;;;;;;5491507;26;20018;-72
2024/04/11 02:11:03;;;;;;;3.40;2.08;;;11.80;93.50;;;;;;5491253;26;20489;-71
2024/04/11 02:13:29;;;;;;;5.20;2.20;;;11.80;93.50;;;;;;5491832;26;20024;-71
2024/04/11 02:15:55;;;;;;;5.60;2.47;;;11.80;93.40;;;;;;5491273;26;20022;-71
2024/04/11 02:18:21;;;;;;;5.45;2.17;;;11.80;93.40;;;;;;5491008;26;20073;-71
2024/04/11 02:20:47;;;;;;;4.07;2.55;;;11.80;93.60;;;;;;5491908;26;20022;-71
2024/04/11 02:23:14;;;;;;;4.88;2.10;;;11.80;93.60;;;;;;5489850;26;20026;-70
2024/04/11 02:25:41;;;;;;;5.18;2.10;;;11.70;93.80;;;;;;5490958;26;20034;-71
2024/04/11 02:28:07;;;;;;;4.57;2.17;;;11.70;93.90;;;;;;5491665;26;20019;-71
2024/04/11 02:30:33;;;;;;;5.00;2.13;;;11.60;94.00;;;;;;5491625;26;20038;-71
2024/04/11 02:32:59;;;;;;;3.38;2.30;;;11.60;94.20;;;;;;5490870;26;20034;-71
2024/04/11 02:35:26;;;;;;;4.00;2.20;;;11.50;94.20;;;;;;5491552;26;20379;-71
2024/04/11 02:37:55;;;;;;;6.75;2.40;;;11.50;94.40;;;;;;5491482;26;20022;-71
2024/04/11 02:40:21;;;;;;;4.45;2.20;;;11.50;94.30;;;;;;5490759;26;20022;-71
2024/04/11 02:42:48;;;;;;;10.43;2.75;;;11.50;94.30;;;;;;5491107;26;20022;-71
2024/04/11 02:45:18;;;;;;;6.10;2.05;;;11.50;94.70;;;;;;5491404;26;20026;-71
2024/04/11 02:47:44;;;;;;;5.80;2.30;;;11.40;94.70;;;;;;5491526;26;20034;-71
2024/04/11 02:50:15;;;;;;;8.52;2.45;;;11.40;94.80;;;;;;5491344;26;20022;-71
2024/04/11 02:52:41;;;;;;;4.82;2.13;;;11.30;95.10;;;;;;5490731;26;20025;-71
2024/04/11 02:55:14;;;;;;;5.60;2.42;;;11.30;95.30;;;;;;5491245;26;20026;-71
2024/04/11 02:57:45;;;;;;;6.30;2.20;;;11.30;95.20;;;;;;5490713;26;20031;-71
2024/04/11 03:00:11;;;;;;;6.28;2.40;;;11.30;95.40;;;;;;5490330;26;20018;-71
2024/04/11 03:02:37;;;;;;;6.38;2.97;;;11.30;95.50;;;;;;5491030;26;20378;-70
2024/04/11 03:05:05;;;;;;;6.30;2.70;;;11.30;95.30;;;;;;5491362;26;20349;-71
2024/04/11 03:07:32;;;;;;;5.88;2.75;;;11.30;95.60;;;;;;5491108;26;20026;-71
2024/04/11 03:09:58;;;;;;;6.82;2.90;;;11.30;95.50;;;;;;5490399;26;20022;-71
2024/04/11 03:12:24;;;;;;;9.85;2.95;;;11.20;95.80;;;;;;5490391;26;20022;-71
2024/04/11 03:14:51;;;;;;;6.60;2.55;;;11.20;95.80;;;;;;5488477;26;20368;-71
2024/04/11 03:17:17;;;;;;;5.35;2.80;;;11.20;95.50;;;;;;5490300;26;20026;-71
2024/04/11 03:19:45;;;;;;;8.48;2.75;;;11.20;95.70;;;;;;5490206;26;20018;-71
2024/04/11 03:22:11;;;;;;;6.70;2.80;;;11.20;95.60;;;;;;5488609;26;20038;-71
2024/04/11 03:24:38;;;;;;;4.78;2.90;;;11.20;95.70;;;;;;5490931;26;20352;-71
2024/04/11 03:27:04;;;;;;;9.25;3.20;;;11.20;95.90;;;;;;5490305;26;20035;-71
2024/04/11 03:29:30;;;;;;;8.50;3.13;;;11.20;95.90;;;;;;5490794;26;20031;-71
2024/04/11 03:31:57;;;;;;;5.45;3.00;;;11.20;96.20;;;;;;5490254;26;20094;-71
2024/04/11 03:34:23;;;;;;;4.35;2.63;;;11.20;96.10;;;;;;5490641;26;20030;-71
2024/04/11 03:36:50;;;;;;;5.13;2.70;;;11.10;96.30;;;;;;5490566;26;20030;-71
2024/04/11 03:39:16;;;;;;;9.32;3.15;;;11.10;96.20;;;;;;5490577;26;20018;-71
2024/04/11 03:41:49;;;;;;;5.05;3.25;;;11.10;96.20;;;;;;5489942;26;20030;-71
2024/04/11 03:44:16;;;;;;;5.15;3.05;;;11.20;96.20;;;;;;5490059;26;20022;-71
2024/04/11 03:46:42;;;;;;;8.25;2.85;;;11.10;96.30;;;;;;5490413;26;20022;-71
2024/04/11 03:49:08;;;;;;;7.80;3.42;;;11.10;96.40;;;;;;5490384;26;20030;-71
2024/04/11 03:51:39;;;;;;;7.32;3.58;;;11.10;96.60;;;;;;5489531;26;20018;-71
2024/04/11 03:54:14;;;;;;;5.35;3.30;;;11.00;96.70;;;;;;5488814;26;20483;-71
2024/04/11 03:56:41;;;;;;;4.72;2.80;;;11.00;96.80;;;;;;5490392;26;20022;-71
2024/04/11 03:59:07;;;;;;;7.72;3.38;;;11.00;96.70;;;;;;5490395;26;20022;-71
2024/04/11 04:01:34;;;;;;;5.50;3.20;;;11.00;96.80;;;;;;5490125;26;20031;-71
2024/04/11 04:04:04;;;;;;;5.05;2.72;;;11.00;96.90;;;;;;5489389;26;20022;-71
2024/04/11 04:06:33;;;;;;;6.13;3.30;;;11.00;96.80;;;;;;5467541;26;20038;-71
2024/04/11 04:09:01;;;;;;;6.50;3.08;;;11.00;96.80;;;;;;5466591;26;20038;-71
2024/04/11 04:11:27;;;;;;;5.57;3.10;;;11.00;97.10;;;;;;5475556;26;20030;-71
2024/04/11 04:13:53;;;;;;;5.80;3.03;;;11.00;97.10;;;;;;5478404;26;20032;-71
2024/04/11 04:16:20;;;;;;;6.97;3.50;;;11.00;97.00;;;;;;5476676;26;20033;-70
2024/04/11 04:18:47;;;;;;;7.55;3.33;;;11.00;97.30;;;;;;5470744;26;20026;-71
2024/04/11 04:21:14;;;;;;;6.93;3.30;;;11.00;97.20;;;;;;5463769;26;20366;-71
2024/04/11 04:23:48;;;;;;;8.07;2.90;;;11.00;97.30;;;;;;5456482;26;20035;-71
2024/04/11 04:26:19;;;;;;;5.55;3.22;;;11.00;97.20;;;;;;5463668;26;20371;-71
2024/04/11 04:28:45;;;;;;;6.00;3.58;;;11.00;97.40;;;;;;5471984;26;20039;-71
2024/04/11 04:31:17;;;;;;;4.53;2.97;;;11.00;97.20;;;;;;5472815;26;20038;-70
2024/04/11 04:33:47;;;;;;;5.85;3.35;;;11.00;97.70;;;;;;5475368;26;20030;-71
2024/04/11 04:36:20;;;;;;;6.50;3.10;;;11.00;97.30;;;;;;5473113;26;20035;-71
2024/04/11 04:38:49;;;;;;;5.57;3.67;;;11.10;97.60;;;;;;5470937;26;20030;-71
2024/04/11 04:41:20;;;;;;;9.10;3.25;;;11.10;97.40;;;;;;5475732;26;20640;-70
2024/04/11 04:43:54;;;;;;;9.43;3.35;;;11.10;97.50;;;;;;5458054;26;20125;-71
2024/04/11 04:46:34;;;;;;;6.07;2.97;;;11.10;97.60;;;;;;5455738;26;20030;-70
2024/04/11 04:49:03;;;;;;;6.13;3.25;;;11.10;97.40;;;;;;5455150;26;20375;-70
2024/04/11 04:51:32;;;;;;;5.20;3.15;;;11.10;97.70;;;;;;5488887;26;20023;-71
2024/04/11 04:54:01;;;;;;;7.13;3.67;;;11.10;97.40;;;;;;5492406;26;20464;-71
2024/04/11 04:56:29;;;;;;;5.30;2.92;;;11.20;97.80;;;;;;5491693;26;20026;-71
2024/04/11 04:58:56;;;;;;;7.80;3.60;;;11.20;97.90;;;;;;5492464;26;20027;-71
2024/04/11 05:01:23;;;;;;;4.35;2.67;;;11.10;98.00;;;;;;5491888;26;20026;-71
2024/04/11 05:03:50;;;;;;;8.07;3.65;;;11.20;97.90;;;;;;5492199;26;20030;-71
2024/04/11 05:06:16;;;;;;;9.90;3.88;;;11.20;97.80;;;;;;5492295;26;20026;-71
2024/04/11 05:08:46;;;;;;;6.78;3.60;;;11.30;97.70;;;;;;5492189;26;20030;-71
2024/04/11 05:11:16;;;;;;;7.20;3.50;;;11.30;97.60;;;;;;5492286;26;20042;-71
2024/04/11 05:13:43;;;;;;;12.05;3.85;;;11.30;97.90;;;;;;5492282;26;20030;-71
2024/04/11 05:16:12;;;;;;;6.78;3.97;;;11.40;97.60;;;;;;5491771;26;20030;-71
2024/04/11 05:18:39;;;;;;;6.63;3.72;;;11.50;97.40;;;;;;5491284;26;20039;-71
2024/04/11 05:21:07;;;;;;;7.38;3.55;;;11.50;97.40;;;;;;5464028;26;20368;-71
2024/04/11 05:23:34;;;;;;;5.72;2.90;;;11.50;97.40;;;;;;5455553;26;20027;-71
2024/04/11 05:26:07;;;;;;;6.63;3.60;;;11.60;97.30;;;;;;5454909;26;20035;-71
2024/04/11 05:28:35;;;;;;;7.45;3.30;;;11.60;97.40;;;;;;5455564;26;20027;-71
2024/04/11 05:31:04;;;;;;;6.35;3.85;;;11.60;97.80;;;;;;5455063;26;20023;-71
2024/04/11 05:33:38;;;;;;;6.32;3.83;;;11.70;97.60;;;;;;5455329;26;20393;-71
2024/04/11 05:36:12;;;;;;;5.60;3.30;;;11.70;97.60;;;;;;5455452;26;20034;-71
2024/04/11 05:38:41;;;;;;;8.05;3.97;;;11.70;97.60;;;;;;5455350;26;20030;-71
2024/04/11 05:41:13;;;;;;;6.97;3.55;;;11.70;97.70;;;;;;5455471;26;20027;-71
2024/04/11 05:43:44;;;;;;;6.28;3.67;;;11.80;97.50;;;;;;5455384;26;20023;-71
2024/04/11 05:46:10;;;;;;;5.63;3.58;;;11.90;97.80;;;;;;5454982;26;20027;-71
2024/04/11 05:48:37;;;;;;;8.57;3.58;;;11.90;97.50;;;;;;5455067;26;20039;-71
2024/04/11 05:51:05;;;;;;;5.63;3.50;;;12.00;97.50;;;;;;5480161;26;20039;-71
2024/04/11 05:53:36;;;;;;;8.00;3.60;;;12.00;97.50;;;;;;5491643;26;20468;-71
2024/04/11 05:56:10;;;;;;;6.53;3.58;;;12.00;97.50;;;;;;5491643;26;20026;-71
2024/04/11 05:58:40;;;;;;;5.78;3.28;;;12.10;97.30;;;;;;5490816;26;20026;-71
2024/04/11 06:01:09;;;;;;;8.73;3.47;;;12.10;97.40;;;;;;5489979;26;20026;-71
2024/04/11 06:03:46;;;;;;;6.75;3.80;;;12.20;97.50;;;;;;5490766;26;20026;-71
2024/04/11 06:06:13;;;;;;;9.75;3.80;;;12.20;97.40;;;;;;5489105;26;20022;-71
2024/04/11 06:08:43;;;;;;;5.55;3.83;;;12.30;97.30;;;;;;5468054;26;20035;-71
2024/04/11 06:11:10;;;;;;;7.93;3.47;;;12.40;97.60;;;;;;5455559;26;20480;-71
2024/04/11 06:13:37;;;;;;;7.57;3.60;;;12.40;97.30;;;;;;5455488;26;20019;-71
2024/04/11 06:16:03;;;;;;;7.53;4.25;;;12.40;97.10;;;;;;5455515;26;20367;-71
2024/04/11 06:18:35;;;;;;;6.40;4.03;;;12.50;97.30;;;;;;5455344;26;20031;-71
2024/04/11 06:21:04;;;;;;;5.50;3.72;;;12.50;97.10;;;;;;5455022;26;20027;-70
2024/04/11 06:23:31;;;;;;;8.63;4.03;;;12.60;97.00;;;;;;5455241;26;20473;-71
2024/04/11 06:26:00;;;;;;;6.65;3.85;;;12.60;96.90;;;;;;5455392;26;20481;-70
2024/04/11 06:28:28;;;;;;;6.70;4.32;;;12.70;96.80;;;;;;5455133;26;20038;-70
2024/04/11 06:30:54;;;;;;;7.72;4.60;;;12.80;96.70;;;;;;5470504;26;20030;-71
2024/04/11 06:33:24;;;;;;;8.27;4.72;;;12.80;96.90;;;;;;5490052;26;20035;-71
2024/04/11 06:35:53;;;;;;;8.70;4.10;;;12.80;96.50;;;;;;5489793;26;20034;-71
2024/04/11 06:38:23;;;;;;;8.02;4.32;;;12.90;96.30;;;;;;5489848;26;20034;-70
2024/04/11 06:40:52;;;;;;;8.35;4.70;;;13.00;96.30;;;;;;5491496;26;20023;-70
2024/04/11 06:43:19;;;;;;;8.00;4.38;;;13.00;96.50;;;;;;5490882;26;20018;-71
2024/04/11 06:45:45;;;;;;;9.73;4.68;;;13.00;96.10;;;;;;5491484;26;20026;-71
2024/04/11 06:48:12;;;;;;;8.13;5.30;;;13.00;96.40;;;;;;5490612;26;20022;-71
2024/04/11 06:50:41;;;;;;;7.97;4.93;;;13.00;96.60;;;;;;5491018;26;20034;-71
2024/04/11 06:53:09;;;;;;;7.70;4.82;;;13.10;96.20;;;;;;5489865;26;20031;-71
2024/04/11 06:55:35;;;;;;;7.05;4.43;;;13.20;96.20;;;;;;5489822;26;20034;-71
2024/04/11 06:58:01;;;;;;;8.10;5.07;;;13.20;96.10;;;;;;5479834;26;20066;-70
2024/04/11 07:00:36;;;;;;;6.60;4.55;;;13.30;96.10;;;;;;5460598;26;20387;-71
2024/04/11 07:03:25;;;;;;;8.68;5.03;;;13.30;95.90;;;;;;5453678;26;20039;-71
2024/04/11 07:06:09;;;;;;;8.23;5.05;;;13.40;95.80;;;;;;5472461;26;20026;-71
2024/04/11 07:08:38;;;;;;;12.45;4.93;;;13.40;95.90;;;;;;5469077;26;20403;-71
2024/04/11 07:11:26;;;;;;;10.13;5.22;;;13.50;96.00;;;;;;5466557;26;20034;-71
2024/04/11 07:13:57;;;;;;;8.48;4.90;;;13.50;95.90;;;;;;5459694;26;20042;-71
2024/04/11 07:16:40;;;;;;;10.05;4.88;;;13.60;95.80;;;;;;5451937;26;20034;-71
2024/04/11 07:19:08;;;;;;;14.43;4.72;;;13.70;95.70;;;;;;5453076;26;20026;-71
2024/04/11 07:21:38;;;;;;;8.98;4.80;;;13.70;95.60;;;;;;5453678;26;20026;-71
2024/04/11 07:24:06;;;;;;;8.05;4.82;;;13.80;95.50;;;;;;5453069;26;20047;-71
2024/04/11 07:26:33;;;;;;;8.65;5.13;;;13.90;95.40;;;;;;5453631;26;20047;-71
2024/04/11 07:29:05;;;;;;;9.23;5.00;;;14.00;95.30;;;;;;5453480;26;20030;-71
2024/04/11 07:31:33;;;;;;;7.60;4.57;;;14.00;95.20;;;;;;5453989;26;20023;-71
2024/04/11 07:34:02;;;;;;;11.70;4.80;;;14.10;95.40;;;;;;5453150;26;20472;-71
2024/04/11 07:36:38;;;;;;;10.55;5.10;;;14.20;95.20;;;;;;5454030;26;20095;-71
2024/04/11 07:39:08;;;;;;;11.40;5.00;;;14.20;95.00;;;;;;5452088;26;20034;-71
2024/04/11 07:42:47;;;;;;;9.15;5.35;;;14.30;95.20;;;;;;5452501;26;20641;-71
2024/04/11 07:44:22;;;;;;;9.95;4.90;;;14.40;95.00;;;;;;5436513;26;20031;-71
2024/04/11 07:46:49;;;;;;;11.88;5.45;;;14.50;95.10;;;;;;5453129;26;20506;-71
2024/04/11 07:49:15;;;;;;;10.07;5.25;;;14.60;94.90;;;;;;5451257;26;20026;-71
2024/04/11 07:51:42;;;;;;;8.57;4.35;;;14.60;94.50;;;;;;5449742;26;20030;-71
2024/04/11 07:54:15;;;;;;;9.45;5.32;;;14.70;94.70;;;;;;5450543;26;20472;-72
2024/04/11 07:56:41;;;;;;;7.63;4.95;;;14.80;94.40;;;;;;5451474;26;20031;-71
2024/04/11 07:59:11;;;;;;;9.77;5.22;;;14.90;94.50;;;;;;5452498;26;20027;-71
2024/04/11 08:01:37;;;;;;;7.80;4.78;;;15.00;94.20;;;;;;5452544;26;20031;-71
2024/04/11 08:04:05;;;;;;;7.47;4.55;;;15.10;94.30;;;;;;5452908;26;20026;-71
2024/04/11 08:06:34;;;;;;;7.68;4.40;;;15.20;94.00;;;;;;5472710;26;19994;-71
2024/04/11 08:09:01;;;;;;;11.77;5.22;;;15.30;94.10;;;;;;5489970;26;20030;-71
2024/04/11 08:11:30;;;;;;;7.57;4.45;;;15.30;93.90;;;;;;5490179;26;20033;-71
2024/04/11 08:17:38;;;;;;;10.55;5.18;;;15.50;93.60;;;;;;5483859;26;20030;-71
2024/04/11 08:20:12;;;;;;;8.73;4.85;;;15.60;93.30;;;;;;5489554;26;20022;-74
2024/04/11 08:22:39;;;;;;;8.18;5.65;;;15.60;93.50;;;;;;5488880;26;20014;-76
2024/04/11 08:25:06;;;;;;;11.77;5.75;;;15.70;93.30;;;;;;5489881;26;20356;-76
2024/04/11 08:27:32;;;;;;;10.95;4.97;;;15.80;93.30;;;;;;5489605;26;20026;-76
2024/04/11 08:29:59;;;;;;;12.98;4.80;;;16.00;93.20;;;;;;5488769;26;20022;-76
2024/04/11 08:32:25;;;;;;;11.25;5.25;;;16.00;93.10;;;;;;5489600;26;20014;-77
2024/04/11 08:34:52;;;;;;;9.23;4.55;;;16.00;93.10;;;;;;5489742;26;20355;-76
2024/04/11 08:37:19;;;;;;;6.45;4.47;;;16.10;92.70;;;;;;5488218;26;20018;-73
2024/04/11 08:39:45;;;;;;;7.75;4.80;;;16.20;93.10;;;;;;5487829;26;20027;-76
2024/04/11 08:42:12;;;;;;;10.07;4.63;;;16.30;92.70;;;;;;5489344;26;20018;-75
2024/04/11 08:44:42;;;;;;;9.73;4.82;;;16.40;92.70;;;;;;5489564;26;20018;-73
2024/04/11 08:47:08;;;;;;;10.52;4.97;;;16.50;92.70;;;;;;5488257;26;20014;-75
2024/04/11 08:49:34;;;;;;;10.15;4.97;;;16.50;92.20;;;;;;5489365;26;20022;-75
2024/04/11 08:52:05;;;;;;;10.30;4.55;;;16.60;92.30;;;;;;5489436;26;20022;-76
2024/04/11 08:54:32;;;;;;;7.50;4.50;;;16.60;92.10;;;;;;5489563;26;20030;-76
2024/04/11 08:56:58;;;;;;;7.40;4.68;;;16.70;92.10;;;;;;5490584;26;20031;-75
2024/04/11 08:59:29;;;;;;;8.60;4.25;;;16.80;92.30;;;;;;5492973;26;20097;-75
2024/04/11 09:01:55;;;;;;;6.95;4.65;;;16.90;92.10;;;;;;5492716;26;20355;-75
2024/04/11 09:04:22;;;;;;;7.85;5.13;;;17.00;92.20;;;;;;5460334;26;20018;-75
2024/04/11 09:06:53;;;;;;;7.18;4.05;;;17.00;92.20;;;;;;5460474;26;20014;-76
2024/04/11 09:09:19;;;;;;;11.73;4.90;;;17.10;91.20;;;;;;5492139;26;20030;-76
2024/04/11 09:11:46;;;;;;;8.75;4.78;;;17.20;90.90;;;;;;5492779;26;20023;-76
2024/04/11 09:14:15;;;;;;;10.90;4.38;;;17.20;91.60;;;;;;5459522;26;20030;-75
2024/04/11 09:16:42;;;;;;;7.88;4.38;;;17.40;91.20;;;;;;5491403;26;20050;-75
2024/04/11 09:19:09;;;;;;;8.48;4.47;;;17.50;91.40;;;;;;5508925;26;20029;-76
2024/04/11 09:21:45;;;;;;;10.40;4.95;;;17.50;91.10;;;;;;5529450;26;20014;-75
2024/04/11 09:24:18;;;;;;;9.35;4.25;;;17.60;91.00;;;;;;5496517;26;20013;-76
2024/04/11 09:26:48;;;;;;;8.48;4.72;;;17.60;90.70;;;;;;5529488;26;20025;-76
2024/04/11 09:29:17;;;;;;;8.52;4.50;;;17.70;90.70;;;;;;5529343;26;20021;-76
2024/04/11 09:31:44;;;;;;;7.88;4.80;;;17.80;90.80;;;;;;5496615;26;20017;-75
2024/04/11 09:34:13;;;;;;;8.65;4.88;;;17.90;90.70;;;;;;5496325;26;20013;-75
2024/04/11 09:36:49;;;;;;;7.15;4.45;;;17.90;90.30;;;;;;5529497;26;20021;-75
2024/04/11 09:39:45;;;;;;;7.68;4.60;;;17.90;90.00;;;;;;5529597;26;20013;-72
2024/04/11 09:42:18;;;;;;;8.60;4.13;;;18.00;90.20;;;;;;5529170;26;20029;-75
2024/04/11 09:44:47;;;;;;;9.87;4.80;;;18.10;90.80;;;;;;5496438;26;20026;-75
2024/04/11 09:47:18;;;;;;;8.02;4.53;;;18.20;89.30;;;;;;5495995;26;20266;-75
2024/04/11 09:49:53;;;;;;;8.48;4.72;;;18.20;90.10;;;;;;5529075;26;20021;-74
2024/04/11 09:52:27;;;;;;;8.27;5.00;;;18.30;90.30;;;;;;5529163;26;20037;-75
2024/04/11 09:55:02;;;;;;;8.60;4.38;;;18.40;90.20;;;;;;5529203;26;20021;-75
2024/04/11 09:57:29;;;;;;;9.77;4.60;;;18.40;89.20;;;;;;5529080;26;20021;-74
2024/04/11 09:59:55;;;;;;;10.77;4.57;;;18.50;90.00;;;;;;5528924;26;20022;-75
2024/04/11 10:02:24;;;;;;;10.98;4.90;;;18.60;90.30;;;;;;5528897;26;20029;-75
2024/04/11 10:04:57;;;;;;;10.80;5.38;;;18.70;90.00;;;;;;5528369;26;20029;-75
2024/04/11 10:07:33;;;;;;;7.70;4.70;;;18.70;89.30;;;;;;5526584;26;20029;-75
2024/04/11 10:10:06;;;;;;;10.77;4.95;;;18.80;89.00;;;;;;5523573;26;20033;-74
2024/04/11 10:12:39;;;;;;;10.40;4.78;;;18.80;88.40;;;;;;5524464;26;20013;-74
2024/04/11 10:15:22;;;;;;;9.50;5.10;;;18.90;88.60;;;;;;5526896;26;20026;-74
2024/04/11 10:18:10;;;;;;;9.02;5.13;;;19.00;88.50;;;;;;5526181;26;20033;-74
2024/04/11 10:21:01;;;;;;;11.27;4.78;;;19.10;89.10;;;;;;5525347;26;20013;-75
2024/04/11 10:23:29;;;;;;;9.63;5.25;;;19.10;87.40;;;;;;5492626;26;20037;-75
2024/04/11 10:25:59;;;;;;;9.20;4.68;;;19.20;88.30;;;;;;5472094;26;20027;-75
2024/04/11 10:28:41;;;;;;;8.70;5.22;;;19.20;89.00;;;;;;5476140;26;20385;-74
2024/04/11 10:31:12;;;;;;;10.65;5.50;;;19.40;88.70;;;;;;5476292;26;20038;-75
2024/04/11 10:33:53;;;;;;;12.20;5.63;;;19.50;87.80;;;;;;5439911;26;20046;-75
2024/04/11 10:36:21;;;;;;;9.77;5.47;;;19.50;88.00;;;;;;5467196;26;20030;-75
2024/04/11 10:38:57;;;;;;;7.03;5.00;;;19.50;86.70;;;;;;5458457;26;20031;-75
2024/04/11 10:41:24;;;;;;;6.60;4.63;;;19.60;85.90;;;;;;5421099;26;20042;-75
2024/04/11 10:43:55;;;;;;;10.70;5.43;;;19.60;87.70;;;;;;5453921;26;20023;-75
2024/04/11 10:46:23;;;;;;;8.32;5.30;;;19.70;86.20;;;;;;5453907;26;20466;-74
2024/04/11 10:48:54;;;;;;;9.38;4.97;;;19.70;88.10;;;;;;5454480;26;20369;-75
2024/04/11 10:51:22;;;;;;;8.98;5.30;;;19.90;88.00;;;;;;5454047;26;20023;-75
2024/04/11 10:54:08;;;;;;;9.23;4.90;;;19.90;86.80;;;;;;5454451;26;20031;-74
2024/04/11 10:56:40;;;;;;;8.82;4.95;;;19.90;85.90;;;;;;5454469;26;20023;-74
2024/04/11 10:59:12;;;;;;;6.93;4.15;;;20.00;86.40;;;;;;5454333;26;20035;-75
2024/04/11 11:01:41;;;;;;;10.70;4.63;;;20.10;87.00;;;;;;5454656;26;20042;-74
2024/04/11 11:04:08;;;;;;;13.15;5.55;;;20.10;84.90;;;;;;5452664;26;20889;-75
2024/04/11 11:06:47;;;;;;;7.63;4.47;;;20.10;84.90;;;;;;5448749;26;19999;-74
2024/04/11 11:09:17;;;;;;;7.10;4.65;;;20.20;86.50;;;;;;5451704;26;20493;-74
2024/04/11 11:11:45;;;;;;;10.10;5.45;;;20.40;87.10;;;;;;5418637;26;20030;-75
2024/04/11 11:14:20;;;;;;;9.32;4.97;;;20.50;85.10;;;;;;5451813;26;20030;-75
2024/04/11 11:16:50;;;;;;;7.22;4.65;;;20.50;84.50;;;;;;5453953;26;20030;-75
2024/04/11 11:19:17;;;;;;;8.75;4.85;;;20.50;85.40;;;;;;5488100;26;20109;-75
2024/04/11 11:21:51;;;;;;;8.55;4.60;;;20.60;85.60;;;;;;5454456;26;20053;-75
2024/04/11 11:24:24;;;;;;;12.95;8.38;;;20.70;85.20;;;;;;5488479;26;20021;-75
2024/04/11 11:26:56;;;;;;;;;;;20.70;85.20;;;;;;5490116;26;20026;-75
2024/04/11 11:29:27;;;;;;;8.80;4.53;;;20.80;83.80;;;;;;5489697;26;19951;-75
2024/04/11 11:32:01;;;;;;;11.10;4.20;;;20.80;85.70;;;;;;5488850;26;20037;-74
2024/04/11 11:34:42;;;;;;;7.82;4.30;;;20.90;83.90;;;;;;5487292;26;20608;-75
2024/04/11 11:37:12;;;;;;;7.72;4.32;;;21.00;85.00;;;;;;5482318;26;20488;-75
2024/04/11 11:39:43;;;;;;;6.78;4.43;;;21.00;85.00;;;;;;5484477;26;19997;-75
2024/04/11 11:42:10;;;;;;;7.38;4.15;;;21.10;85.50;;;;;;5486266;26;20022;-75
2024/04/11 11:47:34;;;;;;;7.03;3.58;;;21.20;83.80;;;;;;5486466;26;20022;-75
2024/04/11 11:50:17;;;;;;;8.35;3.90;;;21.20;83.30;;;;;;5488116;26;20026;-75
2024/04/11 11:52:49;;;;;;;6.38;3.80;;;21.30;84.10;;;;;;5487097;26;20026;-75
2024/04/11 11:55:18;;;;;;;9.35;3.65;;;21.40;82.70;;;;;;5488897;26;20472;-75
2024/04/11 11:58:02;;;;;;;6.75;3.92;;;21.40;82.00;;;;;;5488897;26;20026;-75
2024/04/11 12:00:32;;;;;;;10.05;4.05;;;21.40;81.60;;;;;;5456131;26;20032;-75
2024/04/11 12:03:11;;;;;;;8.93;3.38;;;21.40;82.90;;;;;;5489088;26;20489;-75
2024/04/11 12:05:39;;;;;;;4.88;3.42;;;21.40;83.10;;;;;;5489554;26;20035;-75
2024/04/11 12:08:06;;;;;;;8.45;3.58;;;21.40;83.40;;;;;;5490259;26;20455;-75
2024/04/11 12:13:19;;;;;;;4.07;3.38;;;21.50;82.80;;;;;;5490167;26;20468;-75
2024/04/11 12:15:49;;;;;;;5.57;3.55;;;21.60;82.80;;;;;;5489887;26;20031;-75
2024/04/11 12:18:23;;;;;;;7.18;3.67;;;21.60;82.50;;;;;;5489978;26;20027;-75
2024/04/11 12:20:57;;;;;;;4.25;2.72;;;21.70;81.90;;;;;;5490207;26;20347;-75
2024/04/11 12:23:27;;;;;;;5.82;3.47;;;21.70;82.60;;;;;;5490028;26;20034;-75
2024/04/11 12:25:57;;;;;;;7.15;3.67;;;21.70;82.20;;;;;;5457223;26;20471;-75
2024/04/11 12:28:25;;;;;;;9.10;3.67;;;21.80;82.30;;;;;;5489789;26;20022;-75
2024/04/11 12:31:07;;;;;;;7.60;3.95;;;21.80;81.70;;;;;;5490989;26;20518;-75
2024/04/11 12:33:34;;;;;;;7.82;3.63;;;21.90;81.70;;;;;;5493622;26;20022;-75
2024/04/11 12:36:08;;;;;;;6.40;3.50;;;21.90;82.00;;;;;;5493307;26;20456;-75
2024/04/11 12:38:39;;;;;;;6.82;3.10;;;22.00;80.70;;;;;;5493320;26;20026;-75
2024/04/11 12:41:13;;;;;;;5.75;3.25;;;22.20;81.40;;;;;;5493425;26;20034;-75
2024/04/11 12:43:41;;;;;;;6.57;3.22;;;22.20;80.30;;;;;;5493319;26;20026;-75
2024/04/11 12:46:09;;;;;;;9.68;3.50;;;22.30;80.80;;;;;;5493378;26;20479;-75
2024/04/11 12:48:35;;;;;;;7.35;2.78;;;22.30;81.30;;;;;;5492955;26;20357;-75
2024/04/11 12:51:04;;;;;;;8.13;3.42;;;22.40;81.40;;;;;;5460399;26;20030;-75
2024/04/11 12:53:31;;;;;;;6.88;3.53;;;22.50;80.90;;;;;;5493225;26;20027;-75
2024/04/11 12:55:58;;;;;;;7.13;2.65;;;22.60;80.70;;;;;;5493124;26;20018;-75
2024/04/11 12:58:25;;;;;;;8.60;3.20;;;22.60;79.90;;;;;;5460604;26;20365;-75
2024/04/11 13:01:03;;;;;;;4.78;2.95;;;22.60;80.00;;;;;;5460268;26;20030;-75
2024/04/11 13:06:37;;;;;;;7.10;3.30;;;22.50;75.40;;;;;;5493004;26;20461;-75
2024/04/11 13:09:10;;;;;;;6.25;3.35;;;22.40;78.80;;;;;;5492665;26;20368;-75